sensor_id;sensor_type;location;lat;lon;timestamp;P1;durP1;ratioP1;P2;durP2;ratioP2
47523;SDS011;33253;42.144;25.884;2022-09-09T00:06:57;10.75;;;4.20;;
47523;SDS011;33253;42.144;25.884;2022-09-09T00:12:08;6.30;;;4.45;;
47523;SDS011;33253;42.144;25.884;2022-09-09T00:14:39;9.43;;;4.88;;
47523;SDS011;33253;42.144;25.884;2022-09-09T00:17:25;9.07;;;4.18;;
47523;SDS011;33253;42.144;25.884;2022-09-09T00:19:56;8.00;;;4.55;;
47523;SDS011;33253;42.144;25.884;2022-09-09T00:22:30;8.40;;;4.57;;
47523;SDS011;33253;42.144;25.884;2022-09-09T00:25:08;10.52;;;4.50;;
47523;SDS011;33253;42.144;25.884;2022-09-09T00:27:40;6.82;;;4.30;;
47523;SDS011;33253;42.144;25.884;2022-09-09T00:32:58;8.32;;;4.20;;
47523;SDS011;33253;42.144;25.884;2022-09-09T00:35:36;12.13;;;3.72;;
47523;SDS011;33253;42.144;25.884;2022-09-09T00:38:15;6.72;;;4.07;;
47523;SDS011;33253;42.144;25.884;2022-09-09T00:43:39;10.65;;;4.18;;
47523;SDS011;33253;42.144;25.884;2022-09-09T01:02:53;9.88;;;4.68;;
47523;SDS011;33253;42.144;25.884;2022-09-09T01:05:51;7.88;;;4.25;;
47523;SDS011;33253;42.144;25.884;2022-09-09T01:11:23;10.90;;;4.28;;
47523;SDS011;33253;42.144;25.884;2022-09-09T01:14:10;9.05;;;4.03;;
47523;SDS011;33253;42.144;25.884;2022-09-09T01:16:58;10.02;;;4.45;;
47523;SDS011;33253;42.144;25.884;2022-09-09T01:19:45;9.85;;;4.63;;
47523;SDS011;33253;42.144;25.884;2022-09-09T01:28:02;7.60;;;4.55;;
47523;SDS011;33253;42.144;25.884;2022-09-09T01:30:34;10.52;;;5.47;;
47523;SDS011;33253;42.144;25.884;2022-09-09T01:36:01;7.38;;;4.25;;
47523;SDS011;33253;42.144;25.884;2022-09-09T01:38:32;6.88;;;4.43;;
47523;SDS011;33253;42.144;25.884;2022-09-09T01:40:59;7.32;;;4.40;;
47523;SDS011;33253;42.144;25.884;2022-09-09T01:43:25;8.10;;;4.57;;
47523;SDS011;33253;42.144;25.884;2022-09-09T01:45:53;6.45;;;4.03;;
47523;SDS011;33253;42.144;25.884;2022-09-09T01:48:21;8.23;;;4.18;;
47523;SDS011;33253;42.144;25.884;2022-09-09T01:50:48;8.80;;;4.38;;
47523;SDS011;33253;42.144;25.884;2022-09-09T01:53:14;7.50;;;4.10;;
47523;SDS011;33253;42.144;25.884;2022-09-09T01:55:43;6.28;;;4.38;;
47523;SDS011;33253;42.144;25.884;2022-09-09T01:58:43;8.30;;;4.53;;
47523;SDS011;33253;42.144;25.884;2022-09-09T02:03:53;6.20;;;4.00;;
47523;SDS011;33253;42.144;25.884;2022-09-09T02:06:26;8.55;;;4.38;;
47523;SDS011;33253;42.144;25.884;2022-09-09T02:08:56;9.13;;;3.83;;
47523;SDS011;33253;42.144;25.884;2022-09-09T02:11:23;6.07;;;4.18;;
47523;SDS011;33253;42.144;25.884;2022-09-09T02:13:54;9.90;;;4.22;;
47523;SDS011;33253;42.144;25.884;2022-09-09T02:16:42;8.43;;;4.20;;
47523;SDS011;33253;42.144;25.884;2022-09-09T02:21:54;6.65;;;3.92;;
47523;SDS011;33253;42.144;25.884;2022-09-09T02:24:21;9.05;;;3.92;;
47523;SDS011;33253;42.144;25.884;2022-09-09T02:26:48;7.90;;;4.25;;
47523;SDS011;33253;42.144;25.884;2022-09-09T02:29:18;6.80;;;3.97;;
47523;SDS011;33253;42.144;25.884;2022-09-09T02:31:48;9.13;;;4.13;;
47523;SDS011;33253;42.144;25.884;2022-09-09T02:34:16;9.73;;;3.97;;
47523;SDS011;33253;42.144;25.884;2022-09-09T02:36:45;7.43;;;4.40;;
47523;SDS011;33253;42.144;25.884;2022-09-09T02:39:11;10.32;;;4.70;;
47523;SDS011;33253;42.144;25.884;2022-09-09T02:41:39;7.80;;;4.00;;
47523;SDS011;33253;42.144;25.884;2022-09-09T02:44:10;10.82;;;4.05;;
47523;SDS011;33253;42.144;25.884;2022-09-09T02:49:37;8.07;;;4.32;;
47523;SDS011;33253;42.144;25.884;2022-09-09T02:52:30;9.43;;;4.05;;
47523;SDS011;33253;42.144;25.884;2022-09-09T02:54:58;10.82;;;4.70;;
47523;SDS011;33253;42.144;25.884;2022-09-09T02:57:29;9.68;;;3.95;;
47523;SDS011;33253;42.144;25.884;2022-09-09T02:59:57;9.40;;;4.18;;
47523;SDS011;33253;42.144;25.884;2022-09-09T03:02:23;9.65;;;4.45;;
47523;SDS011;33253;42.144;25.884;2022-09-09T03:04:50;11.93;;;4.03;;
47523;SDS011;33253;42.144;25.884;2022-09-09T03:07:17;8.93;;;3.92;;
47523;SDS011;33253;42.144;25.884;2022-09-09T03:09:45;12.38;;;4.60;;
47523;SDS011;33253;42.144;25.884;2022-09-09T03:12:11;9.23;;;4.88;;
47523;SDS011;33253;42.144;25.884;2022-09-09T03:14:37;10.30;;;4.60;;
47523;SDS011;33253;42.144;25.884;2022-09-09T03:17:03;10.43;;;4.30;;
47523;SDS011;33253;42.144;25.884;2022-09-09T03:19:29;12.13;;;4.53;;
47523;SDS011;33253;42.144;25.884;2022-09-09T03:21:55;10.82;;;4.43;;
47523;SDS011;33253;42.144;25.884;2022-09-09T03:24:20;9.50;;;4.28;;
47523;SDS011;33253;42.144;25.884;2022-09-09T03:26:47;10.30;;;4.30;;
47523;SDS011;33253;42.144;25.884;2022-09-09T03:29:13;8.57;;;4.00;;
47523;SDS011;33253;42.144;25.884;2022-09-09T03:31:39;12.98;;;4.65;;
47523;SDS011;33253;42.144;25.884;2022-09-09T03:34:05;10.45;;;4.20;;
47523;SDS011;33253;42.144;25.884;2022-09-09T03:36:31;8.77;;;4.05;;
47523;SDS011;33253;42.144;25.884;2022-09-09T03:38:57;11.10;;;4.88;;
47523;SDS011;33253;42.144;25.884;2022-09-09T03:41:24;9.98;;;4.63;;
47523;SDS011;33253;42.144;25.884;2022-09-09T03:43:53;12.05;;;4.68;;
47523;SDS011;33253;42.144;25.884;2022-09-09T03:46:22;7.53;;;4.07;;
47523;SDS011;33253;42.144;25.884;2022-09-09T03:48:49;9.27;;;4.07;;
47523;SDS011;33253;42.144;25.884;2022-09-09T03:51:15;11.30;;;4.57;;
47523;SDS011;33253;42.144;25.884;2022-09-09T03:53:41;9.43;;;4.20;;
47523;SDS011;33253;42.144;25.884;2022-09-09T03:56:07;9.85;;;4.30;;
47523;SDS011;33253;42.144;25.884;2022-09-09T03:58:33;8.48;;;4.53;;
47523;SDS011;33253;42.144;25.884;2022-09-09T04:01:01;11.15;;;4.90;;
47523;SDS011;33253;42.144;25.884;2022-09-09T04:03:41;16.55;;;5.68;;
47523;SDS011;33253;42.144;25.884;2022-09-09T04:06:13;13.75;;;5.90;;
47523;SDS011;33253;42.144;25.884;2022-09-09T04:08:40;26.40;;;6.75;;
47523;SDS011;33253;42.144;25.884;2022-09-09T04:11:06;18.08;;;6.00;;
47523;SDS011;33253;42.144;25.884;2022-09-09T04:13:33;20.90;;;6.35;;
47523;SDS011;33253;42.144;25.884;2022-09-09T04:16:00;15.40;;;6.43;;
47523;SDS011;33253;42.144;25.884;2022-09-09T04:18:26;17.92;;;7.18;;
47523;SDS011;33253;42.144;25.884;2022-09-09T04:20:53;15.50;;;6.78;;
47523;SDS011;33253;42.144;25.884;2022-09-09T04:23:22;18.63;;;6.25;;
47523;SDS011;33253;42.144;25.884;2022-09-09T04:25:50;16.55;;;6.22;;
47523;SDS011;33253;42.144;25.884;2022-09-09T04:28:17;14.25;;;5.38;;
47523;SDS011;33253;42.144;25.884;2022-09-09T04:30:44;18.63;;;4.70;;
47523;SDS011;33253;42.144;25.884;2022-09-09T04:33:11;7.47;;;4.43;;
47523;SDS011;33253;42.144;25.884;2022-09-09T04:35:37;9.38;;;3.67;;
47523;SDS011;33253;42.144;25.884;2022-09-09T04:38:04;12.52;;;4.45;;
47523;SDS011;33253;42.144;25.884;2022-09-09T04:40:33;9.55;;;4.28;;
47523;SDS011;33253;42.144;25.884;2022-09-09T04:42:59;9.70;;;4.65;;
47523;SDS011;33253;42.144;25.884;2022-09-09T04:45:25;10.93;;;4.43;;
47523;SDS011;33253;42.144;25.884;2022-09-09T04:47:51;6.70;;;3.90;;
47523;SDS011;33253;42.144;25.884;2022-09-09T04:50:17;8.63;;;4.43;;
47523;SDS011;33253;42.144;25.884;2022-09-09T04:52:43;12.05;;;4.30;;
47523;SDS011;33253;42.144;25.884;2022-09-09T04:55:09;10.15;;;4.22;;
47523;SDS011;33253;42.144;25.884;2022-09-09T04:57:34;11.15;;;4.35;;
47523;SDS011;33253;42.144;25.884;2022-09-09T05:00:00;12.15;;;4.43;;
47523;SDS011;33253;42.144;25.884;2022-09-09T05:02:26;13.38;;;3.78;;
47523;SDS011;33253;42.144;25.884;2022-09-09T05:04:52;9.90;;;3.97;;
47523;SDS011;33253;42.144;25.884;2022-09-09T05:07:17;9.43;;;4.03;;
47523;SDS011;33253;42.144;25.884;2022-09-09T05:09:43;9.10;;;4.53;;
47523;SDS011;33253;42.144;25.884;2022-09-09T05:12:10;8.73;;;4.30;;
47523;SDS011;33253;42.144;25.884;2022-09-09T05:14:36;6.68;;;4.28;;
47523;SDS011;33253;42.144;25.884;2022-09-09T05:17:02;9.98;;;4.05;;
47523;SDS011;33253;42.144;25.884;2022-09-09T05:19:28;11.45;;;4.75;;
47523;SDS011;33253;42.144;25.884;2022-09-09T05:21:56;10.93;;;4.30;;
47523;SDS011;33253;42.144;25.884;2022-09-09T05:24:21;11.73;;;4.60;;
47523;SDS011;33253;42.144;25.884;2022-09-09T05:26:48;9.93;;;3.90;;
47523;SDS011;33253;42.144;25.884;2022-09-09T05:29:14;11.93;;;4.95;;
47523;SDS011;33253;42.144;25.884;2022-09-09T05:31:39;8.90;;;3.88;;
47523;SDS011;33253;42.144;25.884;2022-09-09T05:34:06;12.70;;;4.63;;
47523;SDS011;33253;42.144;25.884;2022-09-09T05:36:31;9.02;;;4.60;;
47523;SDS011;33253;42.144;25.884;2022-09-09T05:38:57;10.13;;;4.55;;
47523;SDS011;33253;42.144;25.884;2022-09-09T05:41:22;13.52;;;4.20;;
47523;SDS011;33253;42.144;25.884;2022-09-09T05:43:48;7.43;;;3.53;;
47523;SDS011;33253;42.144;25.884;2022-09-09T05:46:15;13.10;;;4.03;;
47523;SDS011;33253;42.144;25.884;2022-09-09T05:48:43;11.18;;;4.00;;
47523;SDS011;33253;42.144;25.884;2022-09-09T05:51:13;8.18;;;4.10;;
47523;SDS011;33253;42.144;25.884;2022-09-09T05:53:42;14.45;;;4.72;;
47523;SDS011;33253;42.144;25.884;2022-09-09T05:56:10;10.95;;;3.83;;
47523;SDS011;33253;42.144;25.884;2022-09-09T05:58:39;12.70;;;4.68;;
47523;SDS011;33253;42.144;25.884;2022-09-09T06:03:34;13.40;;;4.97;;
47523;SDS011;33253;42.144;25.884;2022-09-09T06:06:01;28.55;;;6.65;;
47523;SDS011;33253;42.144;25.884;2022-09-09T06:08:33;27.85;;;5.88;;
47523;SDS011;33253;42.144;25.884;2022-09-09T06:11:06;23.13;;;5.22;;
47523;SDS011;33253;42.144;25.884;2022-09-09T06:13:33;12.27;;;4.68;;
47523;SDS011;33253;42.144;25.884;2022-09-09T06:16:00;10.27;;;4.38;;
47523;SDS011;33253;42.144;25.884;2022-09-09T06:18:27;18.08;;;5.13;;
47523;SDS011;33253;42.144;25.884;2022-09-09T06:21:03;23.67;;;6.22;;
47523;SDS011;33253;42.144;25.884;2022-09-09T06:23:30;21.23;;;5.30;;
47523;SDS011;33253;42.144;25.884;2022-09-09T06:26:06;15.55;;;4.43;;
47523;SDS011;33253;42.144;25.884;2022-09-09T06:28:35;16.98;;;4.88;;
47523;SDS011;33253;42.144;25.884;2022-09-09T06:31:03;13.52;;;4.63;;
47523;SDS011;33253;42.144;25.884;2022-09-09T06:33:31;22.38;;;4.97;;
47523;SDS011;33253;42.144;25.884;2022-09-09T06:35:59;11.52;;;4.80;;
47523;SDS011;33253;42.144;25.884;2022-09-09T06:38:25;18.55;;;5.80;;
47523;SDS011;33253;42.144;25.884;2022-09-09T06:40:51;24.35;;;5.78;;
47523;SDS011;33253;42.144;25.884;2022-09-09T06:43:19;15.17;;;4.27;;
47523;SDS011;33253;42.144;25.884;2022-09-09T06:45:52;10.35;;;4.40;;
47523;SDS011;33253;42.144;25.884;2022-09-09T06:48:21;17.63;;;4.50;;
47523;SDS011;33253;42.144;25.884;2022-09-09T06:50:47;12.63;;;3.88;;
47523;SDS011;33253;42.144;25.884;2022-09-09T06:53:17;13.38;;;4.35;;
47523;SDS011;33253;42.144;25.884;2022-09-09T06:55:44;19.00;;;4.88;;
47523;SDS011;33253;42.144;25.884;2022-09-09T06:58:10;15.85;;;4.40;;
47523;SDS011;33253;42.144;25.884;2022-09-09T07:00:36;17.65;;;4.35;;
47523;SDS011;33253;42.144;25.884;2022-09-09T07:03:03;17.88;;;3.90;;
47523;SDS011;33253;42.144;25.884;2022-09-09T07:05:30;15.52;;;4.15;;
47523;SDS011;33253;42.144;25.884;2022-09-09T07:07:55;15.02;;;3.83;;
47523;SDS011;33253;42.144;25.884;2022-09-09T07:10:21;7.15;;;2.88;;
47523;SDS011;33253;42.144;25.884;2022-09-09T07:12:50;7.18;;;3.00;;
47523;SDS011;33253;42.144;25.884;2022-09-09T07:15:18;10.90;;;4.03;;
47523;SDS011;33253;42.144;25.884;2022-09-09T07:17:44;12.57;;;3.67;;
47523;SDS011;33253;42.144;25.884;2022-09-09T07:20:10;12.65;;;3.60;;
47523;SDS011;33253;42.144;25.884;2022-09-09T07:22:36;14.02;;;3.70;;
47523;SDS011;33253;42.144;25.884;2022-09-09T07:25:02;8.82;;;3.60;;
47523;SDS011;33253;42.144;25.884;2022-09-09T07:27:28;12.50;;;3.58;;
47523;SDS011;33253;42.144;25.884;2022-09-09T07:29:53;8.60;;;3.67;;
47523;SDS011;33253;42.144;25.884;2022-09-09T07:32:19;16.70;;;4.10;;
47523;SDS011;33253;42.144;25.884;2022-09-09T07:34:45;9.73;;;3.83;;
47523;SDS011;33253;42.144;25.884;2022-09-09T07:37:12;15.85;;;4.70;;
47523;SDS011;33253;42.144;25.884;2022-09-09T07:39:38;9.38;;;3.58;;
47523;SDS011;33253;42.144;25.884;2022-09-09T07:42:04;9.27;;;3.40;;
47523;SDS011;33253;42.144;25.884;2022-09-09T07:44:30;13.65;;;4.40;;
47523;SDS011;33253;42.144;25.884;2022-09-09T07:46:59;8.48;;;3.53;;
47523;SDS011;33253;42.144;25.884;2022-09-09T07:49:25;8.93;;;3.63;;
47523;SDS011;33253;42.144;25.884;2022-09-09T07:51:51;11.77;;;3.88;;
47523;SDS011;33253;42.144;25.884;2022-09-09T07:54:18;13.18;;;4.28;;
47523;SDS011;33253;42.144;25.884;2022-09-09T07:56:45;10.48;;;3.45;;
47523;SDS011;33253;42.144;25.884;2022-09-09T07:59:11;8.55;;;3.72;;
47523;SDS011;33253;42.144;25.884;2022-09-09T08:01:44;11.48;;;3.92;;
47523;SDS011;33253;42.144;25.884;2022-09-09T08:04:16;8.70;;;3.13;;
47523;SDS011;33253;42.144;25.884;2022-09-09T08:06:46;15.52;;;3.35;;
47523;SDS011;33253;42.144;25.884;2022-09-09T08:09:13;6.55;;;3.17;;
47523;SDS011;33253;42.144;25.884;2022-09-09T08:11:40;7.40;;;2.50;;
47523;SDS011;33253;42.144;25.884;2022-09-09T08:14:07;10.50;;;3.40;;
47523;SDS011;33253;42.144;25.884;2022-09-09T08:16:34;9.13;;;3.00;;
47523;SDS011;33253;42.144;25.884;2022-09-09T08:19:02;7.65;;;2.80;;
47523;SDS011;33253;42.144;25.884;2022-09-09T08:21:28;4.72;;;2.00;;
47523;SDS011;33253;42.144;25.884;2022-09-09T08:23:57;3.75;;;1.80;;
47523;SDS011;33253;42.144;25.884;2022-09-09T08:26:25;3.88;;;1.90;;
47523;SDS011;33253;42.144;25.884;2022-09-09T08:28:54;2.78;;;1.90;;
47523;SDS011;33253;42.144;25.884;2022-09-09T08:31:25;1.88;;;1.33;;
47523;SDS011;33253;42.144;25.884;2022-09-09T08:33:55;5.35;;;1.90;;
47523;SDS011;33253;42.144;25.884;2022-09-09T08:36:24;6.63;;;1.90;;
47523;SDS011;33253;42.144;25.884;2022-09-09T08:38:52;4.82;;;2.00;;
47523;SDS011;33253;42.144;25.884;2022-09-09T08:44:07;3.40;;;1.40;;
47523;SDS011;33253;42.144;25.884;2022-09-09T08:52:23;6.53;;;1.85;;
47523;SDS011;33253;42.144;25.884;2022-09-09T08:55:20;16.40;;;2.72;;
47523;SDS011;33253;42.144;25.884;2022-09-09T08:57:49;3.22;;;1.80;;
47523;SDS011;33253;42.144;25.884;2022-09-09T09:00:18;4.07;;;1.83;;
47523;SDS011;33253;42.144;25.884;2022-09-09T09:11:44;3.72;;;1.70;;
47523;SDS011;33253;42.144;25.884;2022-09-09T09:19:24;5.10;;;1.85;;
47523;SDS011;33253;42.144;25.884;2022-09-09T09:21:54;3.25;;;1.70;;
47523;SDS011;33253;42.144;25.884;2022-09-09T09:24:31;3.10;;;1.60;;
47523;SDS011;33253;42.144;25.884;2022-09-09T09:27:00;5.43;;;2.13;;
47523;SDS011;33253;42.144;25.884;2022-09-09T09:29:35;3.95;;;1.92;;
47523;SDS011;33253;42.144;25.884;2022-09-09T09:32:03;3.88;;;1.92;;
47523;SDS011;33253;42.144;25.884;2022-09-09T09:34:29;5.22;;;1.80;;
47523;SDS011;33253;42.144;25.884;2022-09-09T09:36:56;2.90;;;1.58;;
47523;SDS011;33253;42.144;25.884;2022-09-09T09:39:23;4.65;;;1.60;;
47523;SDS011;33253;42.144;25.884;2022-09-09T09:41:50;3.70;;;1.95;;
47523;SDS011;33253;42.144;25.884;2022-09-09T09:44:34;2.83;;;1.80;;
47523;SDS011;33253;42.144;25.884;2022-09-09T09:49:37;5.72;;;2.03;;
47523;SDS011;33253;42.144;25.884;2022-09-09T09:52:03;2.83;;;1.60;;
47523;SDS011;33253;42.144;25.884;2022-09-09T09:54:30;9.30;;;2.08;;
47523;SDS011;33253;42.144;25.884;2022-09-09T09:57:08;6.68;;;1.95;;
47523;SDS011;33253;42.144;25.884;2022-09-09T09:59:37;7.22;;;1.85;;
47523;SDS011;33253;42.144;25.884;2022-09-09T10:02:15;7.20;;;1.98;;
47523;SDS011;33253;42.144;25.884;2022-09-09T10:04:43;2.55;;;1.80;;
47523;SDS011;33253;42.144;25.884;2022-09-09T10:07:13;5.97;;;2.10;;
47523;SDS011;33253;42.144;25.884;2022-09-09T10:09:43;5.43;;;2.10;;
47523;SDS011;33253;42.144;25.884;2022-09-09T10:15:07;2.67;;;2.00;;
47523;SDS011;33253;42.144;25.884;2022-09-09T10:23:20;6.38;;;2.60;;
47523;SDS011;33253;42.144;25.884;2022-09-09T10:31:49;3.42;;;2.50;;
47523;SDS011;33253;42.144;25.884;2022-09-09T10:35:02;3.90;;;2.20;;
47523;SDS011;33253;42.144;25.884;2022-09-09T10:52:30;3.60;;;2.00;;
47523;SDS011;33253;42.144;25.884;2022-09-09T10:55:10;3.33;;;2.25;;
47523;SDS011;33253;42.144;25.884;2022-09-09T10:57:40;3.58;;;2.28;;
47523;SDS011;33253;42.144;25.884;2022-09-09T11:02:41;4.35;;;2.17;;
47523;SDS011;33253;42.144;25.884;2022-09-09T11:05:14;4.63;;;2.30;;
47523;SDS011;33253;42.144;25.884;2022-09-09T11:08:09;3.17;;;2.10;;
47523;SDS011;33253;42.144;25.884;2022-09-09T11:10:45;5.70;;;2.20;;
47523;SDS011;33253;42.144;25.884;2022-09-09T11:18:53;7.78;;;2.38;;
47523;SDS011;33253;42.144;25.884;2022-09-09T11:21:42;5.55;;;2.40;;
47523;SDS011;33253;42.144;25.884;2022-09-09T11:24:14;3.08;;;2.13;;
47523;SDS011;33253;42.144;25.884;2022-09-09T11:26:51;5.72;;;2.35;;
47523;SDS011;33253;42.144;25.884;2022-09-09T11:29:40;2.92;;;1.98;;
47523;SDS011;33253;42.144;25.884;2022-09-09T11:40:18;5.72;;;2.50;;
47523;SDS011;33253;42.144;25.884;2022-09-09T11:42:44;4.97;;;2.47;;
47523;SDS011;33253;42.144;25.884;2022-09-09T11:45:22;3.45;;;2.22;;
47523;SDS011;33253;42.144;25.884;2022-09-09T11:48:00;3.15;;;2.13;;
47523;SDS011;33253;42.144;25.884;2022-09-09T11:50:31;3.65;;;2.38;;
47523;SDS011;33253;42.144;25.884;2022-09-09T11:55:33;3.85;;;2.22;;
47523;SDS011;33253;42.144;25.884;2022-09-09T11:58:05;4.25;;;2.33;;
47523;SDS011;33253;42.144;25.884;2022-09-09T12:00:47;4.18;;;2.22;;
47523;SDS011;33253;42.144;25.884;2022-09-09T12:06:17;6.82;;;2.58;;
47523;SDS011;33253;42.144;25.884;2022-09-09T12:08:46;4.07;;;2.28;;
47523;SDS011;33253;42.144;25.884;2022-09-09T12:11:25;6.18;;;2.50;;
47523;SDS011;33253;42.144;25.884;2022-09-09T12:13:53;7.03;;;2.78;;
47523;SDS011;33253;42.144;25.884;2022-09-09T12:16:30;4.88;;;2.17;;
47523;SDS011;33253;42.144;25.884;2022-09-09T12:21:54;3.90;;;2.15;;
47523;SDS011;33253;42.144;25.884;2022-09-09T12:24:37;4.60;;;2.45;;
47523;SDS011;33253;42.144;25.884;2022-09-09T12:27:33;4.13;;;2.50;;
47523;SDS011;33253;42.144;25.884;2022-09-09T12:30:12;3.70;;;2.22;;
47523;SDS011;33253;42.144;25.884;2022-09-09T12:32:40;8.90;;;2.95;;
47523;SDS011;33253;42.144;25.884;2022-09-09T12:35:13;4.95;;;2.30;;
47523;SDS011;33253;42.144;25.884;2022-09-09T12:37:52;7.15;;;2.83;;
47523;SDS011;33253;42.144;25.884;2022-09-09T12:40:25;5.18;;;2.50;;
47523;SDS011;33253;42.144;25.884;2022-09-09T12:43:00;5.45;;;2.80;;
47523;SDS011;33253;42.144;25.884;2022-09-09T12:45:27;4.70;;;2.70;;
47523;SDS011;33253;42.144;25.884;2022-09-09T12:50:32;5.60;;;2.63;;
47523;SDS011;33253;42.144;25.884;2022-09-09T12:53:13;4.60;;;2.38;;
47523;SDS011;33253;42.144;25.884;2022-09-09T12:56:00;2.88;;;2.22;;
47523;SDS011;33253;42.144;25.884;2022-09-09T12:58:28;3.92;;;2.55;;
47523;SDS011;33253;42.144;25.884;2022-09-09T13:00:58;5.30;;;4.13;;
47523;SDS011;33253;42.144;25.884;2022-09-09T13:03:25;7.80;;;2.90;;
47523;SDS011;33253;42.144;25.884;2022-09-09T13:05:52;5.30;;;2.60;;
47523;SDS011;33253;42.144;25.884;2022-09-09T13:08:19;3.60;;;2.80;;
47523;SDS011;33253;42.144;25.884;2022-09-09T13:10:50;5.55;;;2.60;;
47523;SDS011;33253;42.144;25.884;2022-09-09T13:13:21;4.57;;;2.40;;
47523;SDS011;33253;42.144;25.884;2022-09-09T13:15:52;4.30;;;2.60;;
47523;SDS011;33253;42.144;25.884;2022-09-09T13:18:24;5.88;;;2.88;;
47523;SDS011;33253;42.144;25.884;2022-09-09T13:20:54;4.57;;;2.80;;
47523;SDS011;33253;42.144;25.884;2022-09-09T13:23:21;8.05;;;2.60;;
47523;SDS011;33253;42.144;25.884;2022-09-09T13:25:57;4.82;;;2.40;;
47523;SDS011;33253;42.144;25.884;2022-09-09T13:28:25;4.05;;;2.63;;
47523;SDS011;33253;42.144;25.884;2022-09-09T13:30:59;5.68;;;3.00;;
47523;SDS011;33253;42.144;25.884;2022-09-09T13:33:36;4.80;;;2.70;;
47523;SDS011;33253;42.144;25.884;2022-09-09T13:36:06;4.10;;;2.47;;
47523;SDS011;33253;42.144;25.884;2022-09-09T13:41:21;5.40;;;2.97;;
47523;SDS011;33253;42.144;25.884;2022-09-09T13:43:51;6.80;;;2.67;;
47523;SDS011;33253;42.144;25.884;2022-09-09T13:46:38;6.28;;;4.75;;
47523;SDS011;33253;42.144;25.884;2022-09-09T13:54:10;19.05;;;15.23;;
47523;SDS011;33253;42.144;25.884;2022-09-09T13:56:37;11.60;;;10.27;;
47523;SDS011;33253;42.144;25.884;2022-09-09T13:59:05;14.10;;;12.38;;
47523;SDS011;33253;42.144;25.884;2022-09-09T14:01:33;13.88;;;11.80;;
47523;SDS011;33253;42.144;25.884;2022-09-09T14:03:59;6.22;;;2.83;;
47523;SDS011;33253;42.144;25.884;2022-09-09T14:06:25;17.67;;;11.85;;
47523;SDS011;33253;42.144;25.884;2022-09-09T14:08:51;5.32;;;3.50;;
47523;SDS011;33253;42.144;25.884;2022-09-09T14:11:17;5.20;;;3.00;;
47523;SDS011;33253;42.144;25.884;2022-09-09T14:13:43;3.83;;;2.47;;
47523;SDS011;33253;42.144;25.884;2022-09-09T14:16:09;3.40;;;2.58;;
47523;SDS011;33253;42.144;25.884;2022-09-09T14:18:35;4.22;;;2.55;;
47523;SDS011;33253;42.144;25.884;2022-09-09T14:21:02;5.25;;;2.40;;
47523;SDS011;33253;42.144;25.884;2022-09-09T14:23:28;3.83;;;2.55;;
47523;SDS011;33253;42.144;25.884;2022-09-09T14:25:54;5.40;;;2.50;;
47523;SDS011;33253;42.144;25.884;2022-09-09T14:28:20;3.95;;;2.50;;
47523;SDS011;33253;42.144;25.884;2022-09-09T14:30:45;4.50;;;2.50;;
47523;SDS011;33253;42.144;25.884;2022-09-09T14:33:12;5.40;;;2.20;;
47523;SDS011;33253;42.144;25.884;2022-09-09T14:35:39;3.58;;;2.40;;
47523;SDS011;33253;42.144;25.884;2022-09-09T14:38:06;3.25;;;2.10;;
47523;SDS011;33253;42.144;25.884;2022-09-09T14:40:36;3.28;;;2.40;;
47523;SDS011;33253;42.144;25.884;2022-09-09T14:43:03;3.20;;;2.30;;
47523;SDS011;33253;42.144;25.884;2022-09-09T14:45:29;5.53;;;2.50;;
47523;SDS011;33253;42.144;25.884;2022-09-09T14:47:55;9.75;;;2.60;;
47523;SDS011;33253;42.144;25.884;2022-09-09T14:50:21;5.97;;;2.85;;
47523;SDS011;33253;42.144;25.884;2022-09-09T14:52:47;5.90;;;2.33;;
47523;SDS011;33253;42.144;25.884;2022-09-09T14:55:13;3.63;;;2.40;;
47523;SDS011;33253;42.144;25.884;2022-09-09T14:57:40;4.95;;;2.45;;
47523;SDS011;33253;42.144;25.884;2022-09-09T15:00:06;6.50;;;2.10;;
47523;SDS011;33253;42.144;25.884;2022-09-09T15:02:34;3.60;;;1.90;;
47523;SDS011;33253;42.144;25.884;2022-09-09T15:04:59;4.05;;;2.28;;
47523;SDS011;33253;42.144;25.884;2022-09-09T15:07:25;3.25;;;2.00;;
47523;SDS011;33253;42.144;25.884;2022-09-09T15:09:51;3.42;;;2.00;;
47523;SDS011;33253;42.144;25.884;2022-09-09T15:12:17;3.67;;;2.10;;
47523;SDS011;33253;42.144;25.884;2022-09-09T15:14:43;4.60;;;2.33;;
47523;SDS011;33253;42.144;25.884;2022-09-09T15:17:10;2.97;;;2.00;;
47523;SDS011;33253;42.144;25.884;2022-09-09T15:19:36;4.60;;;2.22;;
47523;SDS011;33253;42.144;25.884;2022-09-09T15:22:03;3.95;;;2.22;;
47523;SDS011;33253;42.144;25.884;2022-09-09T15:24:30;4.32;;;2.53;;
47523;SDS011;33253;42.144;25.884;2022-09-09T15:26:56;6.13;;;2.47;;
47523;SDS011;33253;42.144;25.884;2022-09-09T15:29:22;7.50;;;2.35;;
47523;SDS011;33253;42.144;25.884;2022-09-09T15:31:48;4.53;;;2.40;;
47523;SDS011;33253;42.144;25.884;2022-09-09T15:34:13;3.03;;;2.20;;
47523;SDS011;33253;42.144;25.884;2022-09-09T15:36:40;3.30;;;2.08;;
47523;SDS011;33253;42.144;25.884;2022-09-09T15:39:07;5.20;;;2.50;;
47523;SDS011;33253;42.144;25.884;2022-09-09T15:41:37;4.40;;;2.30;;
47523;SDS011;33253;42.144;25.884;2022-09-09T15:44:03;4.18;;;1.90;;
47523;SDS011;33253;42.144;25.884;2022-09-09T15:46:30;3.42;;;1.92;;
47523;SDS011;33253;42.144;25.884;2022-09-09T15:51:29;4.55;;;2.25;;
47523;SDS011;33253;42.144;25.884;2022-09-09T15:53:56;6.53;;;2.92;;
47523;SDS011;33253;42.144;25.884;2022-09-09T15:56:23;3.20;;;2.67;;
47523;SDS011;33253;42.144;25.884;2022-09-09T15:58:50;3.92;;;2.20;;
47523;SDS011;33253;42.144;25.884;2022-09-09T16:01:16;7.63;;;2.40;;
47523;SDS011;33253;42.144;25.884;2022-09-09T16:03:44;2.85;;;2.00;;
47523;SDS011;33253;42.144;25.884;2022-09-09T16:06:15;5.97;;;2.30;;
47523;SDS011;33253;42.144;25.884;2022-09-09T16:08:42;3.28;;;2.30;;
47523;SDS011;33253;42.144;25.884;2022-09-09T16:13:40;3.67;;;1.85;;
47523;SDS011;33253;42.144;25.884;2022-09-09T16:16:07;4.32;;;2.10;;
47523;SDS011;33253;42.144;25.884;2022-09-09T16:18:36;3.30;;;1.98;;
47523;SDS011;33253;42.144;25.884;2022-09-09T16:21:03;3.92;;;2.08;;
47523;SDS011;33253;42.144;25.884;2022-09-09T16:23:30;2.38;;;2.00;;
47523;SDS011;33253;42.144;25.884;2022-09-09T16:25:56;5.45;;;2.40;;
47523;SDS011;33253;42.144;25.884;2022-09-09T16:28:21;6.70;;;3.00;;
47523;SDS011;33253;42.144;25.884;2022-09-09T16:30:47;8.55;;;3.10;;
47523;SDS011;33253;42.144;25.884;2022-09-09T16:33:13;9.75;;;4.43;;
47523;SDS011;33253;42.144;25.884;2022-09-09T16:35:41;4.75;;;2.72;;
47523;SDS011;33253;42.144;25.884;2022-09-09T16:38:07;3.60;;;2.30;;
47523;SDS011;33253;42.144;25.884;2022-09-09T16:40:35;7.72;;;2.60;;
47523;SDS011;33253;42.144;25.884;2022-09-09T16:45:27;8.43;;;3.05;;
47523;SDS011;33253;42.144;25.884;2022-09-09T16:47:54;7.07;;;2.45;;
47523;SDS011;33253;42.144;25.884;2022-09-09T16:50:19;4.97;;;2.50;;
47523;SDS011;33253;42.144;25.884;2022-09-09T16:52:45;7.38;;;2.53;;
47523;SDS011;33253;42.144;25.884;2022-09-09T16:55:10;14.60;;;3.13;;
47523;SDS011;33253;42.144;25.884;2022-09-09T16:57:35;10.35;;;2.72;;
47523;SDS011;33253;42.144;25.884;2022-09-09T17:00:01;11.57;;;2.40;;
47523;SDS011;33253;42.144;25.884;2022-09-09T17:02:29;9.13;;;2.90;;
47523;SDS011;33253;42.144;25.884;2022-09-09T17:04:55;6.55;;;2.20;;
47523;SDS011;33253;42.144;25.884;2022-09-09T17:07:20;6.97;;;2.20;;
47523;SDS011;33253;42.144;25.884;2022-09-09T17:09:47;4.95;;;2.13;;
47523;SDS011;33253;42.144;25.884;2022-09-09T17:12:13;6.80;;;2.50;;
47523;SDS011;33253;42.144;25.884;2022-09-09T17:14:39;9.30;;;2.33;;